Virgo Phoenix — 3FMO8 — position and weather

sailwx.info

Track history (hours):
 
Tides and Currents Weather Stations Pressure Air Temp Water Temp Dewpoint Dewpoint Depression Visibility Wind Speed Wind Dir Waves Ship Positions

Virgo Phoenix

Last reported at 2017-Jan-16 10:32 UTC. Time now 2017-Jan-16 11:02 UTC.
Position N 31°34' E 121°21'.

Length 96 m; draft 6.5 m.

Type: Ship (hazmat cat C). MMSI: 370795000.

Date/timePositionNaut miles runAvg speedWind from/ knotsBaromVisibWave heightAir tempDewpointWater temp
2017-Jan-16 10:32N 31°34' E 121°21'0 0.4
2017-Jan-16 09:33N 31°34' E 121°21'1010.0
2017-Jan-16 08:33N 31°27' E 121°29'9 8.8
2017-Jan-16 07:33N 31°22' E 121°38'9 9.2
2017-Jan-16 06:33N 31°16' E 121°46'1514.6
2017-Jan-16 05:34N 31°06' E 121°58'1312.8
2017-Jan-16 04:33N 31°03' E 122°13'  
2017-Jan-12 10:31N 35°07' E 139°42'1111.0
2017-Jan-12 09:34N 35°18' E 139°44'10 8.9
2017-Jan-12 08:28N 35°27' E 139°45'0 0.0
2017-Jan-12 07:31N 35°27' E 139°45'0 0.1
2017-Jan-12 06:33N 35°27' E 139°45'4 0.2
2017-Jan-11 13:16N 35°31' E 139°46'0 0.0
2017-Jan-11 12:28N 35°31' E 139°46'0 0.0
2017-Jan-11 11:16N 35°31' E 139°46'0 0.1
2017-Jan-11 04:33N 35°31' E 139°46'5 5.0
2017-Jan-11 03:33N 35°27' E 139°43'0 0.1
2017-Jan-11 02:33N 35°26' E 139°43'0 0.0
2017-Jan-11 01:33N 35°26' E 139°43'0 0.4
2017-Jan-11 00:33N 35°26' E 139°44'1010.0
2017-Jan-10 23:33N 35°16' E 139°46'1312.2
2017-Jan-10 22:28N 35°03' E 139°42'  
Track history (hours):
 
Tides and Currents Weather Stations Pressure Air Temp Water Temp Dewpoint Dewpoint Depression Visibility Wind Speed Wind Dir Waves Ship Positions

Virgo Phoenix

Last reported at 2017-Jan-16 10:32 UTC. Time now 2017-Jan-16 11:02 UTC.
Position N 31°34' E 121°21'.

Length 96 m; draft 6.5 m.

Type: Ship (hazmat cat C). MMSI: 370795000.

Date/timePositionNaut miles runAvg speedWind from/ knotsBaromVisibWave heightAir tempDewpointWater temp
2017-Jan-16 10:32N 31°34' E 121°21'0 0.4
2017-Jan-16 09:33N 31°34' E 121°21'1010.0
2017-Jan-16 08:33N 31°27' E 121°29'9 8.8
2017-Jan-16 07:33N 31°22' E 121°38'9 9.2
2017-Jan-16 06:33N 31°16' E 121°46'1514.6
2017-Jan-16 05:34N 31°06' E 121°58'1312.8
2017-Jan-16 04:33N 31°03' E 122°13'  
2017-Jan-12 10:31N 35°07' E 139°42'1111.0
2017-Jan-12 09:34N 35°18' E 139°44'10 8.9
2017-Jan-12 08:28N 35°27' E 139°45'0 0.0
2017-Jan-12 07:31N 35°27' E 139°45'0 0.1
2017-Jan-12 06:33N 35°27' E 139°45'4 0.2
2017-Jan-11 13:16N 35°31' E 139°46'0 0.0
2017-Jan-11 12:28N 35°31' E 139°46'0 0.0
2017-Jan-11 11:16N 35°31' E 139°46'0 0.1
2017-Jan-11 04:33N 35°31' E 139°46'5 5.0
2017-Jan-11 03:33N 35°27' E 139°43'0 0.1
2017-Jan-11 02:33N 35°26' E 139°43'0 0.0
2017-Jan-11 01:33N 35°26' E 139°43'0 0.4
2017-Jan-11 00:33N 35°26' E 139°44'1010.0
2017-Jan-10 23:33N 35°16' E 139°46'1312.2
2017-Jan-10 22:28N 35°03' E 139°42'  

Dump ship's entire track history